Time,TemperatureF,DewpointF,PressureIn,WindDirection,WindDirectionDegrees,WindSpeedMPH,WindSpeedGustMPH,Humidity,HourlyPrecipIn,Conditions,Clouds,dailyrainin,SoftwareType,DateUTC
2013-08-19 00:12:00,61.0,58.0,30.10,South,185,0.0,0.0,90,0.00,,,0.00,,2013-08-19 04:12:00,
2013-08-19 00:23:00,61.0,58.0,30.10,South,185,0.0,0.0,90,0.00,,,0.00,,2013-08-19 04:23:00,
2013-08-19 00:53:00,61.0,58.0,30.09,South,185,0.0,0.0,91,0.00,,,0.00,,2013-08-19 04:53:00,
2013-08-19 01:11:00,60.0,57.0,30.09,South,185,0.0,0.0,91,0.00,,,0.00,,2013-08-19 05:11:00,
2013-08-19 01:22:00,60.0,58.0,30.09,South,185,0.0,0.0,92,0.00,,,0.00,,2013-08-19 05:22:00,
2013-08-19 01:52:00,60.0,58.0,30.08,South,185,0.0,0.0,92,0.00,,,0.00,,2013-08-19 05:52:00,
2013-08-19 02:11:00,59.0,57.0,30.08,South,185,0.0,0.0,92,0.00,,,0.00,,2013-08-19 06:11:00,
2013-08-19 02:21:00,59.0,57.0,30.07,South,185,0.0,0.0,92,0.00,,,0.00,,2013-08-19 06:21:00,
2013-08-19 02:52:00,58.0,56.0,30.07,South,185,0.0,0.0,92,0.00,,,0.00,,2013-08-19 06:52:00,
2013-08-19 03:12:00,58.0,56.0,30.06,South,185,0.0,0.0,92,0.00,,,0.00,,2013-08-19 07:12:00,
2013-08-19 03:21:00,58.0,56.0,30.06,South,185,0.0,0.0,93,0.00,,,0.00,,2013-08-19 07:21:00,
2013-08-19 03:52:00,58.0,56.0,30.06,South,185,0.0,0.0,93,0.00,,,0.00,,2013-08-19 07:52:00,
2013-08-19 04:11:00,57.0,55.0,30.06,South,185,0.0,0.0,93,0.00,,,0.00,,2013-08-19 08:11:00,
2013-08-19 04:21:00,57.0,55.0,30.06,South,185,0.0,0.0,93,0.00,,,0.00,,2013-08-19 08:21:00,
2013-08-19 04:52:00,57.0,55.0,30.05,South,185,0.0,0.0,93,0.00,,,0.00,,2013-08-19 08:52:00,
2013-08-19 05:11:00,57.0,55.0,30.05,South,185,0.0,0.0,94,0.00,,,0.00,,2013-08-19 09:11:00,
2013-08-19 05:22:00,57.0,55.0,30.06,South,185,0.0,0.0,94,0.00,,,0.00,,2013-08-19 09:22:00,
2013-08-19 05:53:00,56.0,54.0,30.05,South,185,0.0,0.0,94,0.00,,,0.00,,2013-08-19 09:53:00,
2013-08-19 06:23:00,57.0,56.0,30.06,South,185,0.0,0.0,95,0.00,,,0.00,,2013-08-19 10:23:00,
2013-08-19 06:52:00,58.0,56.0,30.06,South,185,0.0,0.0,94,0.00,,,0.00,,2013-08-19 10:52:00,
2013-08-19 07:22:00,58.0,57.0,30.06,South,185,0.0,0.0,95,0.00,,,0.00,,2013-08-19 11:22:00,
2013-08-19 07:52:00,58.0,57.0,30.06,South,185,0.0,0.0,95,0.00,,,0.00,,2013-08-19 11:52:00,
2013-08-19 08:11:00,60.0,59.0,30.06,South,185,0.0,0.0,96,0.00,,,0.00,,2013-08-19 12:11:00,
2013-08-19 08:21:00,61.0,60.0,30.05,South,185,0.0,1.0,96,0.00,,,0.00,,2013-08-19 12:21:00,
2013-08-19 08:52:00,64.0,63.0,30.05,SSW,192,0.0,5.0,96,0.00,,,0.00,,2013-08-19 12:52:00,
2013-08-19 09:22:00,67.0,62.0,30.04,West,279,0.0,9.0,84,0.00,,,0.00,,2013-08-19 13:22:00,
2013-08-19 09:42:00,70.0,62.0,30.04,WSW,242,3.0,7.0,76,0.00,,,0.00,,2013-08-19 13:42:00,
2013-08-19 09:52:00,73.0,63.0,30.04,SW,234,0.0,5.0,72,0.00,,,0.00,,2013-08-19 13:52:00,
2013-08-19 10:21:00,75.0,62.0,30.03,WSW,258,0.0,8.0,64,0.00,,,0.00,,2013-08-19 14:21:00,
2013-08-19 10:52:00,77.0,62.0,30.03,WNW,302,1.0,10.0,60,0.00,,,0.00,,2013-08-19 14:52:00,
2013-08-19 11:11:00,77.0,61.0,30.03,West,270,1.0,6.0,58,0.00,,,0.00,,2013-08-19 15:11:00,
2013-08-19 11:22:00,78.0,64.0,30.03,WNW,287,0.0,6.0,62,0.00,,,0.00,,2013-08-19 15:22:00,
2013-08-19 11:54:00,78.0,61.0,30.03,WNW,292,0.0,6.0,55,0.00,,,0.00,,2013-08-19 15:54:00,
2013-08-19 12:13:00,79.0,62.0,30.03,WNW,290,0.0,5.0,56,0.00,,,0.00,,2013-08-19 16:13:00,
2013-08-19 12:23:00,78.0,61.0,30.02,WNW,284,0.0,6.0,56,0.00,,,0.00,,2013-08-19 16:23:00,
2013-08-19 13:30:00,80.0,-99.9,30.01,WNW,296,0.0,8.0,54,0.00,,,0.00,,2013-08-19 17:30:00,
2013-08-19 13:57:00,80.0,61.0,30.00,West,261,0.0,8.0,53,0.00,,,0.00,,2013-08-19 17:57:00,
2013-08-19 14:05:00,80.0,61.0,30.00,West,261,0.0,8.0,53,0.00,,,0.00,,2013-08-19 18:05:00,
2013-08-19 14:19:00,80.0,61.0,30.00,West,261,0.0,8.0,53,0.00,,,0.00,,2013-08-19 18:19:00,
2013-08-19 14:28:00,79.0,61.0,30.00,WNW,297,1.0,8.0,55,0.00,,,0.00,,2013-08-19 18:28:00,
2013-08-19 14:50:00,-999.0,-99.9,30.00,WNW,284,1.0,6.0,54,0.00,,,0.00,,2013-08-19 18:50:00,
2013-08-19 15:00:00,-999.0,-99.9,29.99,WNW,289,0.0,8.0,54,0.00,,,0.00,,2013-08-19 19:00:00,
2013-08-19 15:16:00,80.0,62.0,29.99,SW,225,0.0,7.0,54,0.00,,,0.00,,2013-08-19 19:16:00,
2013-08-19 15:30:00,-999.0,-99.9,29.99,WNW,294,0.0,5.0,54,0.00,,,0.00,,2013-08-19 19:30:00,
2013-08-19 15:50:00,80.0,63.0,29.99,SW,223,0.0,4.0,56,0.00,,,0.00,,2013-08-19 19:50:00,
2013-08-19 15:59:00,79.0,62.0,29.98,WNW,291,1.0,6.0,56,0.00,,,0.00,,2013-08-19 19:59:00,
2013-08-19 16:20:00,79.0,61.0,29.98,WSW,252,0.0,9.0,55,0.00,,,0.00,,2013-08-19 20:20:00,
2013-08-19 16:30:00,79.0,-99.9,29.98,WSW,242,0.0,10.0,57,0.00,,,0.00,,2013-08-19 20:30:00,
2013-08-19 17:00:00,-999.0,-99.9,29.98,WSW,240,0.0,8.0,-999,-99.99,,,-99.99,,2013-08-19 21:00:00,
2013-08-19 17:16:00,77.0,62.0,29.98,WSW,242,0.0,5.0,60,0.00,,,0.00,,2013-08-19 21:16:00,
2013-08-19 17:25:00,77.0,61.0,29.98,WSW,243,1.0,5.0,58,0.00,,,0.00,,2013-08-19 21:25:00,
2013-08-19 17:54:00,75.0,60.0,29.97,SW,227,0.0,1.0,60,0.00,,,0.00,,2013-08-19 21:54:00,
2013-08-19 18:25:00,75.0,61.0,29.98,WSW,241,0.0,4.0,61,0.00,,,0.00,,2013-08-19 22:25:00,
2013-08-19 18:54:00,74.0,60.0,29.98,WSW,251,0.0,4.0,62,0.00,,,0.00,,2013-08-19 22:54:00,
2013-08-19 19:15:00,74.0,61.0,29.99,WSW,252,0.0,4.0,64,0.00,,,0.00,,2013-08-19 23:15:00,
2013-08-19 19:25:00,73.0,59.0,29.99,WSW,254,0.0,1.0,62,0.00,,,0.00,,2013-08-19 23:25:00,
2013-08-19 19:55:00,72.0,59.0,30.00,WSW,254,0.0,1.0,64,0.00,,,0.00,,2013-08-19 23:55:00,
2013-08-19 20:24:00,70.0,59.0,29.99,WSW,254,0.0,0.0,67,0.00,,,0.00,,2013-08-20 00:24:00,
2013-08-19 20:42:00,70.0,59.0,30.00,WSW,254,0.0,1.0,69,0.00,,,0.00,,2013-08-20 00:42:00,
2013-08-19 20:52:00,69.0,59.0,30.00,WSW,254,0.0,2.0,70,0.00,,,0.00,,2013-08-20 00:52:00,
2013-08-19 21:11:00,69.0,59.0,30.00,WSW,254,0.0,1.0,70,0.00,,,0.00,,2013-08-20 01:11:00,
2013-08-19 21:22:00,69.0,59.0,30.00,WSW,254,0.0,0.0,70,0.00,,,0.00,,2013-08-20 01:22:00,
2013-08-19 21:42:00,69.0,59.0,30.00,WSW,254,0.0,1.0,70,0.00,,,0.00,,2013-08-20 01:42:00,
2013-08-19 21:52:00,69.0,59.0,30.00,WSW,254,0.0,3.0,70,0.00,,,0.00,,2013-08-20 01:52:00,
2013-08-19 22:11:00,69.0,59.0,30.00,WSW,254,0.0,3.0,71,0.00,,,0.00,,2013-08-20 02:11:00,
2013-08-19 22:21:00,69.0,59.0,30.00,WSW,254,0.0,2.0,71,0.00,,,0.00,,2013-08-20 02:21:00,
2013-08-19 22:52:00,69.0,59.0,30.00,WSW,254,0.0,2.0,71,0.00,,,0.00,,2013-08-20 02:52:00,
2013-08-19 23:22:00,68.0,59.0,30.00,WSW,254,0.0,0.0,74,0.00,,,0.00,,2013-08-20 03:22:00,
2013-08-19 23:43:00,67.0,59.0,30.00,WSW,254,0.0,2.0,76,0.00,,,0.00,,2013-08-20 03:43:00,
2013-08-19 23:54:00,67.0,60.0,30.00,WSW,254,0.0,1.0,77,0.00,,,0.00,,2013-08-20 03:54:00,